Time;durP1;ratioP1;P1;durP2;ratioP2;P2;SDS_P1;SDS_P2;PMS_P1;PMS_P2;Temp;Humidity;BMP_temperature;BMP_pressure;BME280_temperature;BME280_humidity;BME280_pressure;Samples;Min_cycle;Max_cycle;Signal;HPM_P1;HPM_P2
2023/04/21 00:02:08;;;;;;;14.80;9.60;;;;;;;11.22;84.70;94242.56;5098079;28;20266;-76
2023/04/21 00:04:36;;;;;;;15.40;9.17;;;;;;;11.22;84.91;94239.97;5101941;28;20232;-76
2023/04/21 00:07:03;;;;;;;11.23;8.23;;;;;;;11.23;84.57;94238.13;5102501;28;20195;-76
2023/04/21 00:09:30;;;;;;;15.30;9.10;;;;;;;11.25;84.09;94238.69;5099337;28;20203;-76
2023/04/21 00:12:13;;;;;;;14.50;9.40;;;;;;;11.19;84.57;94230.00;5099078;28;20200;-76
2023/04/21 00:14:40;;;;;;;11.67;9.23;;;;;;;11.19;84.60;94229.22;5099642;28;20210;-76
2023/04/21 00:17:07;;;;;;;17.40;9.47;;;;;;;11.24;84.55;94229.31;5101022;28;20654;-76
2023/04/21 00:19:34;;;;;;;14.40;9.30;;;;;;;11.18;84.05;94233.63;5099420;28;20596;-76
2023/04/21 00:22:03;;;;;;;20.53;10.40;;;;;;;11.14;84.64;94232.50;5101371;28;20519;-76
2023/04/21 00:24:30;;;;;;;16.83;10.00;;;;;;;11.14;84.48;94232.50;5101213;28;20207;-76
2023/04/21 00:26:56;;;;;;;14.73;9.30;;;;;;;11.17;84.17;94228.63;5104736;28;20201;-76
2023/04/21 00:29:23;;;;;;;18.27;10.10;;;;;;;11.12;84.49;94229.34;5102691;28;20188;-76
2023/04/21 00:31:50;;;;;;;17.50;10.20;;;;;;;11.10;84.29;94220.19;5090500;28;20205;-75
2023/04/21 00:34:17;;;;;;;15.97;9.97;;;;;;;11.09;84.11;94232.41;5099422;28;20283;-75
2023/04/21 00:36:43;;;;;;;18.97;10.07;;;;;;;11.12;84.34;94229.34;5097902;28;20207;-75
2023/04/21 00:39:11;;;;;;;17.97;10.57;;;;;;;11.12;83.68;94236.34;5100612;28;20210;-74
2023/04/21 00:41:39;;;;;;;14.37;9.93;;;;;;;11.11;83.69;94240.00;5099562;28;20211;-74
2023/04/21 00:44:08;;;;;;;14.73;9.17;;;;;;;11.00;83.97;94235.59;5097141;28;20222;-74
2023/04/21 00:46:36;;;;;;;14.07;8.53;;;;;;;10.95;84.42;94236.28;5101692;28;20579;-74
2023/04/21 00:49:05;;;;;;;13.90;8.27;;;;;;;10.99;84.00;94231.44;5099313;28;20192;-74
2023/04/21 00:51:34;;;;;;;15.50;8.57;;;;;;;10.86;84.91;94227.28;5085273;28;20204;-74
2023/04/21 00:54:02;;;;;;;12.43;8.67;;;;;;;10.92;84.70;94225.56;5098160;28;20287;-75
2023/04/21 00:56:32;;;;;;;13.60;9.17;;;;;;;10.90;83.92;94219.81;5102462;28;20192;-75
2023/04/21 00:59:00;;;;;;;12.13;8.30;;;;;;;10.91;83.69;94224.75;5103262;28;20230;-74
2023/04/21 01:01:29;;;;;;;14.67;9.03;;;;;;;10.82;83.92;94213.94;5098522;28;20250;-74
2023/04/21 01:03:58;;;;;;;14.70;8.77;;;;;;;10.85;84.46;94215.28;5103684;28;20258;-75
2023/04/21 01:06:25;;;;;;;14.07;8.23;;;;;;;10.80;84.05;94221.19;5102367;28;20196;-75
2023/04/21 01:08:53;;;;;;;11.70;8.37;;;;;;;10.68;84.06;94206.63;5097968;28;20558;-76
2023/04/21 01:11:20;;;;;;;12.60;8.47;;;;;;;10.69;85.25;94222.00;5099921;28;20291;-76
2023/04/21 01:13:48;;;;;;;11.23;8.37;;;;;;;10.58;84.80;94196.03;5105832;28;20192;-76
2023/04/21 01:16:16;;;;;;;18.23;11.00;;;;;;;10.72;84.99;94220.75;5106864;28;20200;-76
2023/04/21 01:18:43;;;;;;;16.43;10.90;;;;;;;10.76;84.90;94221.88;5097005;28;20197;-76
2023/04/21 01:21:13;;;;;;;13.93;10.20;;;;;;;10.70;84.80;94217.59;5095773;28;20200;-77
2023/04/21 01:23:41;;;;;;;12.23;8.63;;;;;;;10.62;85.25;94210.16;5093505;28;20717;-78
2023/04/21 01:26:08;;;;;;;13.10;8.43;;;;;;;10.70;85.71;94215.78;5099820;28;20274;-77
2023/04/21 01:28:35;;;;;;;16.67;9.03;;;;;;;10.71;85.69;94213.97;5103298;28;20196;-77
2023/04/21 01:31:02;;;;;;;15.37;9.17;;;;;;;10.65;86.03;94215.66;5103361;28;20201;-77
2023/04/21 01:33:29;;;;;;;10.57;7.97;;;;;;;10.66;85.87;94206.06;5105219;28;20192;-75
2023/04/21 01:35:56;;;;;;;12.70;8.47;;;;;;;10.61;85.84;94208.56;5099261;28;20188;-75
2023/04/21 01:38:23;;;;;;;12.60;8.60;;;;;;;10.61;85.85;94198.97;5099511;28;20196;-74
2023/04/21 01:40:53;;;;;;;13.27;8.40;;;;;;;10.67;85.19;94213.66;5097654;28;20738;-76
2023/04/21 01:43:23;;;;;;;13.20;8.70;;;;;;;10.64;86.03;94208.91;5102146;28;20201;-74
2023/04/21 01:45:51;;;;;;;14.07;8.13;;;;;;;10.60;85.76;94196.59;5098808;28;20187;-74
2023/04/21 01:48:18;;;;;;;14.80;9.23;;;;;;;10.62;85.72;94202.38;5099014;28;20705;-74
2023/04/21 01:50:44;;;;;;;12.43;8.60;;;;;;;10.63;85.36;94203.94;5100290;28;20654;-74
2023/04/21 01:53:11;;;;;;;12.67;8.60;;;;;;;10.54;85.38;94198.28;5098745;28;20195;-74
2023/04/21 01:55:38;;;;;;;13.07;9.03;;;;;;;10.54;85.79;94194.91;5101610;28;20204;-74
2023/04/21 01:58:06;;;;;;;15.50;9.30;;;;;;;10.59;86.25;94213.22;5104548;28;20642;-73
2023/04/21 02:00:33;;;;;;;14.60;9.43;;;;;;;10.58;86.15;94204.63;5099599;28;20205;-74
2023/04/21 02:02:59;;;;;;;14.23;9.07;;;;;;;10.62;86.10;94207.56;5107991;28;20208;-76
2023/04/21 02:05:26;;;;;;;13.03;9.07;;;;;;;10.64;86.04;94208.91;5101979;28;20224;-76
2023/04/21 02:07:53;;;;;;;16.47;9.43;;;;;;;10.62;85.59;94212.75;5101729;28;20192;-74
2023/04/21 02:10:20;;;;;;;16.50;9.50;;;;;;;10.60;86.29;94212.19;5104500;28;20199;-74
2023/04/21 02:12:47;;;;;;;17.20;9.27;;;;;;;10.55;86.27;94205.09;5098846;28;20580;-76
2023/04/21 02:15:15;;;;;;;12.93;9.63;;;;;;;10.56;86.66;94206.63;5101594;28;20751;-76
2023/04/21 02:17:43;;;;;;;16.33;9.73;;;;;;;10.56;85.86;94201.44;5099693;28;20224;-74
2023/04/21 02:20:12;;;;;;;13.47;8.77;;;;;;;10.61;86.23;94209.38;5105346;28;20554;-74
2023/04/21 02:22:39;;;;;;;14.30;9.00;;;;;;;10.58;86.44;94201.22;5107317;28;20637;-75
2023/04/21 02:25:06;;;;;;;13.90;9.30;;;;;;;10.59;86.07;94205.44;5103482;28;20208;-74
2023/04/21 02:27:33;;;;;;;16.13;8.77;;;;;;;10.60;85.99;94209.59;5100425;28;20209;-75
2023/04/21 02:30:00;;;;;;;12.90;9.20;;;;;;;10.55;86.73;94204.28;5102865;28;20199;-76
2023/04/21 02:32:28;;;;;;;18.80;8.93;;;;;;;10.56;86.05;94205.88;5096200;28;20201;-75
2023/04/21 02:34:55;;;;;;;16.07;9.67;;;;;;;10.48;86.58;94207.00;5103119;28;20257;-75
2023/04/21 02:37:21;;;;;;;14.13;9.97;;;;;;;10.52;87.17;94202.16;5102517;28;21494;-75
2023/04/21 02:39:48;;;;;;;16.33;10.23;;;;;;;10.49;87.27;94207.78;5111566;28;20192;-75
2023/04/21 02:42:15;;;;;;;14.70;9.80;;;;;;;10.56;86.87;94206.63;5099364;28;20660;-76
2023/04/21 02:44:42;;;;;;;16.57;9.73;;;;;;;10.60;87.56;94205.19;5100999;28;20273;-76
2023/04/21 02:47:09;;;;;;;15.60;9.27;;;;;;;10.69;87.39;94208.22;5108322;28;20746;-76
2023/04/21 02:49:41;;;;;;;13.67;9.10;;;;;;;10.73;87.53;94202.34;5112808;28;20200;-76
2023/04/21 02:52:08;;;;;;;20.60;9.57;;;;;;;10.75;86.96;94209.91;5097813;28;20236;-76
2023/04/21 02:54:35;;;;;;;13.07;9.60;;;;;;;10.47;87.74;94212.44;5098758;28;20211;-78
2023/04/21 02:57:02;;;;;;;13.13;9.47;;;;;;;10.48;87.88;94209.59;5112528;28;20195;-76
2023/04/21 02:59:29;;;;;;;13.83;9.57;;;;;;;10.44;88.31;94211.09;5107758;28;20208;-76
2023/04/21 03:01:55;;;;;;;17.47;9.90;;;;;;;10.50;88.47;94210.19;5109589;28;20287;-76
2023/04/21 03:04:23;;;;;;;13.13;9.20;;;;;;;10.54;88.94;94211.28;5109477;28;21589;-76
2023/04/21 03:06:51;;;;;;;15.90;10.10;;;;;;;10.65;88.41;94207.06;5112655;28;20210;-76
2023/04/21 03:09:18;;;;;;;14.03;9.30;;;;;;;10.68;87.92;94209.22;5093547;28;20554;-76
2023/04/21 03:11:44;;;;;;;15.20;10.03;;;;;;;10.69;88.22;94209.00;5101120;28;20646;-76
2023/04/21 03:14:11;;;;;;;15.80;10.70;;;;;;;10.72;87.99;94208.56;5108406;28;20207;-76
2023/04/21 03:16:38;;;;;;;15.93;10.63;;;;;;;10.72;87.91;94213.75;5113866;28;20200;-75
2023/04/21 03:19:05;;;;;;;15.43;10.33;;;;;;;10.75;87.98;94212.50;5093906;28;20296;-75
2023/04/21 03:21:32;;;;;;;14.87;9.90;;;;;;;10.71;87.83;94213.97;5100389;28;20217;-76
2023/04/21 03:24:00;;;;;;;14.83;10.07;;;;;;;10.60;88.54;94220.78;5109835;28;20584;-76
2023/04/21 03:26:27;;;;;;;19.43;10.30;;;;;;;10.49;88.49;94213.00;5093033;28;20298;-75
2023/04/21 03:28:53;;;;;;;12.77;8.97;;;;;;;10.49;88.35;94213.00;5101738;28;20539;-76
2023/04/21 03:31:20;;;;;;;17.17;9.93;;;;;;;10.46;89.40;94216.84;5108023;28;20212;-76
2023/04/21 03:33:47;;;;;;;13.87;9.47;;;;;;;10.52;88.67;94209.94;5110783;28;20538;-78
2023/04/21 03:36:14;;;;;;;16.50;9.40;;;;;;;10.51;88.40;94223.94;5093384;28;20208;-77
2023/04/21 03:38:41;;;;;;;14.20;9.60;;;;;;;10.46;88.46;94218.63;5104254;28;20204;-77
2023/04/21 03:41:09;;;;;;;13.17;9.90;;;;;;;10.52;88.36;94225.53;5105362;28;20204;-78
2023/04/21 03:43:35;;;;;;;15.50;10.50;;;;;;;10.60;88.62;94217.38;5092802;28;20224;-77
2023/04/21 03:46:03;;;;;;;13.77;10.20;;;;;;;10.59;88.45;94219.19;5092359;28;20291;-77
2023/04/21 03:48:30;;;;;;;12.93;9.77;;;;;;;10.65;88.12;94228.66;5092526;28;20200;-78
2023/04/21 03:50:57;;;;;;;13.10;10.20;;;;;;;10.71;87.53;94226.97;5092903;28;20216;-77
2023/04/21 03:53:24;;;;;;;15.83;10.33;;;;;;;10.71;87.53;94232.16;5092779;28;20256;-77
2023/04/21 03:55:51;;;;;;;13.97;10.20;;;;;;;10.64;87.75;94227.09;5092226;28;20289;-77
2023/04/21 03:58:19;;;;;;;14.00;10.33;;;;;;;10.71;87.58;94225.16;5096796;28;20199;-77
2023/04/21 04:00:46;;;;;;;17.60;10.40;;;;;;;10.73;87.21;94235.34;5107530;28;20220;-77
2023/04/21 04:03:13;;;;;;;17.23;10.03;;;;;;;10.78;87.34;94238.03;5113129;28;20210;-77
2023/04/21 04:05:39;;;;;;;17.60;10.60;;;;;;;10.76;86.88;94242.69;5108387;28;20247;-78
2023/04/21 04:08:06;;;;;;;14.87;10.63;;;;;;;10.79;86.76;94242.22;5101116;28;20204;-77
2023/04/21 04:10:33;;;;;;;16.37;11.00;;;;;;;10.79;87.31;94247.41;5091173;28;20577;-77
2023/04/21 04:13:00;;;;;;;16.97;11.10;;;;;;;10.77;86.84;94245.03;5091967;28;20231;-82
2023/04/21 04:15:28;;;;;;;15.80;11.40;;;;;;;10.79;87.36;94250.03;5092586;28;20223;-78
2023/04/21 04:17:55;;;;;;;18.07;11.63;;;;;;;10.85;86.95;94245.72;5091494;28;20211;-78
2023/04/21 04:20:21;;;;;;;16.20;11.20;;;;;;;10.86;87.47;94249.88;5092112;28;20189;-78
2023/04/21 04:22:48;;;;;;;15.33;11.70;;;;;;;10.83;87.01;94251.91;5091599;28;20663;-78
2023/04/21 04:25:15;;;;;;;21.17;11.63;;;;;;;10.72;87.97;94257.94;5091341;28;20224;-78
2023/04/21 04:27:43;;;;;;;18.70;11.50;;;;;;;10.65;88.79;94262.44;5094011;28;20327;-78
2023/04/21 04:30:10;;;;;;;21.20;11.90;;;;;;;10.55;88.68;94249.25;5112871;28;20458;-78
2023/04/21 04:32:40;;;;;;;20.30;11.10;;;;;;;10.54;89.33;94259.84;5106986;28;20207;-77
2023/04/21 04:35:08;;;;;;;17.97;11.90;;;;;;;10.64;89.10;94260.88;5098126;28;20717;-78
2023/04/21 04:37:36;;;;;;;19.60;11.67;;;;;;;10.71;88.86;94264.13;5091291;28;20200;-78
2023/04/21 04:40:05;;;;;;;19.43;11.90;;;;;;;10.74;88.70;94260.28;5091784;28;20188;-77
2023/04/21 04:42:33;;;;;;;17.97;11.93;;;;;;;10.66;88.87;94265.84;5105683;28;20223;-78
2023/04/21 04:45:00;;;;;;;16.40;11.60;;;;;;;10.72;89.06;94270.13;5107006;28;20277;-77
2023/04/21 04:47:27;;;;;;;17.07;11.67;;;;;;;10.73;89.12;94262.13;5107046;28;20207;-77
2023/04/21 04:49:55;;;;;;;18.80;11.80;;;;;;;10.87;88.61;94274.84;5091622;28;20188;-77
2023/04/21 04:52:22;;;;;;;20.70;12.10;;;;;;;10.94;87.58;94265.13;5091215;28;20285;-78
2023/04/21 04:54:49;;;;;;;19.17;12.20;;;;;;;11.10;87.18;94274.81;5091649;28;20249;-77
2023/04/21 04:57:16;;;;;;;20.23;12.00;;;;;;;11.22;86.76;94276.38;5091523;28;20215;-77
2023/04/21 04:59:43;;;;;;;23.83;13.27;;;;;;;11.25;86.33;94267.31;5108508;28;20207;-77
2023/04/21 05:02:09;;;;;;;22.30;15.00;;;;;;;11.23;86.75;94274.53;5094276;28;20205;-77
2023/04/21 05:04:36;;;;;;;24.50;17.80;;;;;;;11.34;86.29;94273.72;5090836;28;20232;-78
2023/04/21 05:07:06;;;;;;;33.40;22.33;;;;;;;11.34;85.81;94274.50;5091604;28;20196;-77
2023/04/21 05:09:33;;;;;;;19.67;14.07;;;;;;;11.17;86.50;94275.44;5091343;28;20674;-77
2023/04/21 05:12:00;;;;;;;17.60;12.60;;;;;;;11.17;87.28;94278.84;5090494;28;20257;-77
2023/04/21 05:14:27;;;;;;;25.13;11.43;;;;;;;11.23;87.50;94271.94;5090468;28;20714;-78
2023/04/21 05:16:54;;;;;;;18.83;11.03;;;;;;;11.36;87.52;94282.09;5091186;28;20189;-77
2023/04/21 05:19:20;;;;;;;24.40;11.17;;;;;;;11.43;87.59;94274.16;5090649;28;20647;-77
2023/04/21 05:21:47;;;;;;;18.70;11.17;;;;;;;11.55;87.08;94277.47;5092555;28;20223;-79
2023/04/21 05:24:15;;;;;;;21.37;11.57;;;;;;;11.65;86.94;94280.28;5092511;28;20221;-78
2023/04/21 05:26:42;;;;;;;17.57;11.97;;;;;;;11.73;86.32;94282.53;5091499;28;20192;-78
2023/04/21 05:29:10;;;;;;;15.97;10.87;;;;;;;11.74;86.09;94279.72;5101760;28;20229;-79
2023/04/21 05:31:37;;;;;;;16.47;10.27;;;;;;;11.69;85.80;94277.00;5107109;28;20203;-79
2023/04/21 05:34:04;;;;;;;18.00;10.67;;;;;;;11.64;85.95;94270.88;5099740;28;20578;-80
2023/04/21 05:36:31;;;;;;;18.13;11.37;;;;;;;11.56;86.45;94276.47;5100930;28;20200;-79
2023/04/21 05:38:58;;;;;;;20.80;11.33;;;;;;;11.70;86.25;94285.59;5103954;28;20188;-79
2023/04/21 05:41:26;;;;;;;15.87;10.37;;;;;;;11.63;86.06;94285.69;5100587;28;20211;-78
2023/04/21 05:43:53;;;;;;;14.93;9.13;;;;;;;11.57;86.15;94280.66;5094260;28;20231;-79
2023/04/21 05:46:19;;;;;;;15.80;10.83;;;;;;;11.70;85.62;94293.41;5091687;28;20238;-79
2023/04/21 05:48:46;;;;;;;14.90;9.93;;;;;;;11.71;85.59;94290.59;5093658;28;20207;-79
2023/04/21 05:51:15;;;;;;;16.93;10.77;;;;;;;11.71;85.67;94287.19;5089937;28;20193;-79
2023/04/21 05:53:43;;;;;;;18.67;10.53;;;;;;;11.51;86.41;94279.78;5092023;28;20280;-78
2023/04/21 05:56:10;;;;;;;13.83;10.10;;;;;;;11.49;87.41;94289.59;5107964;28;20257;-78
2023/04/21 05:58:39;;;;;;;17.20;10.50;;;;;;;11.57;87.12;94276.22;5106189;28;20322;-78
2023/04/21 06:01:06;;;;;;;13.00;9.27;;;;;;;11.67;86.14;94270.41;5103212;28;20620;-78
2023/04/21 06:03:33;;;;;;;12.87;9.27;;;;;;;11.72;86.01;94280.94;5093019;28;20196;-80
2023/04/21 06:06:00;;;;;;;16.30;9.40;;;;;;;11.75;86.83;94283.06;5090489;28;20698;-78
2023/04/21 06:08:27;;;;;;;11.13;8.67;;;;;;;11.73;85.80;94272.91;5090217;28;20219;-79
2023/04/21 06:10:54;;;;;;;14.23;9.70;;;;;;;11.77;86.10;94273.25;5091577;28;20640;-77
2023/04/21 06:13:23;;;;;;;13.70;9.90;;;;;;;11.67;87.09;94268.59;5111038;28;20558;-78
2023/04/21 06:15:51;;;;;;;15.27;10.50;;;;;;;11.75;87.39;94254.44;5103981;28;20196;-79
2023/04/21 06:18:18;;;;;;;16.33;9.87;;;;;;;11.85;87.47;94278.06;5098070;28;20200;-80
2023/04/21 06:20:50;;;;;;;11.90;9.23;;;;;;;11.98;87.04;94276.97;5105619;28;20203;-77
2023/04/21 06:23:17;;;;;;;15.90;10.53;;;;;;;12.02;86.98;94276.25;5110111;28;20654;-78
2023/04/21 06:25:43;;;;;;;14.23;9.77;;;;;;;12.01;86.73;94279.88;5090935;28;20236;-78
2023/04/21 06:28:10;;;;;;;19.33;10.37;;;;;;;12.06;87.28;94279.19;5093474;28;20211;-79
2023/04/21 06:30:37;;;;;;;18.17;9.70;;;;;;;12.05;87.23;94278.41;5107742;28;20287;-78
2023/04/21 06:33:05;;;;;;;12.67;8.80;;;;;;;12.07;87.12;94276.34;5110273;28;20203;-78
2023/04/21 06:35:32;;;;;;;13.83;9.17;;;;;;;12.08;87.42;94277.94;5093974;28;20671;-78
2023/04/21 06:37:59;;;;;;;16.10;9.43;;;;;;;12.14;87.33;94269.16;5089731;28;20197;-77
2023/04/21 06:40:26;;;;;;;17.17;10.57;;;;;;;12.22;87.23;94276.59;5091033;28;20215;-78
2023/04/21 06:42:53;;;;;;;16.10;10.00;;;;;;;12.47;85.75;94269.16;5112108;28;20257;-78
2023/04/21 06:45:20;;;;;;;13.57;9.40;;;;;;;12.60;84.46;94277.66;5101916;28;20216;-80
2023/04/21 06:47:47;;;;;;;18.27;10.60;;;;;;;12.67;84.67;94270.47;5095569;28;20201;-78
2023/04/21 06:50:15;;;;;;;12.90;9.53;;;;;;;12.67;84.52;94273.09;5108238;28;20195;-78
2023/04/21 06:52:42;;;;;;;14.20;9.00;;;;;;;12.66;84.75;94277.50;5093314;28;20291;-78
2023/04/21 06:55:09;;;;;;;15.20;9.00;;;;;;;12.62;84.29;94258.16;5103620;28;20253;-80
2023/04/21 06:57:36;;;;;;;13.47;9.63;;;;;;;12.68;84.57;94272.03;5109105;28;20208;-77
2023/04/21 07:00:04;;;;;;;15.93;9.40;;;;;;;12.64;84.50;94270.97;5114264;28;20228;-78
2023/04/21 07:02:31;;;;;;;14.47;9.53;;;;;;;12.66;84.55;94267.06;5109308;28;20539;-77
2023/04/21 07:04:58;;;;;;;14.53;10.07;;;;;;;12.70;84.97;94262.94;5109280;28;20228;-78
2023/04/21 07:07:26;;;;;;;15.07;9.07;;;;;;;12.63;85.59;94258.94;5109666;28;20291;-77
2023/04/21 07:09:53;;;;;;;15.30;8.83;;;;;;;12.46;86.96;94267.59;5113929;28;20196;-78
2023/04/21 07:12:20;;;;;;;14.17;9.47;;;;;;;12.53;86.99;94265.59;5095451;28;20217;-78
2023/04/21 07:14:47;;;;;;;12.97;8.80;;;;;;;12.54;86.62;94258.56;5093319;28;20223;-77
2023/04/21 07:17:14;;;;;;;15.00;9.20;;;;;;;12.62;86.54;94262.56;5093593;28;20196;-78
2023/04/21 07:19:41;;;;;;;11.80;8.77;;;;;;;12.76;86.54;94253.38;5103156;28;20192;-79
2023/04/21 07:22:07;;;;;;;13.67;8.53;;;;;;;13.02;85.11;94265.72;5096453;28;20200;-78
2023/04/21 07:24:36;;;;;;;11.53;8.60;;;;;;;13.11;83.72;94266.91;5092896;28;20220;-77
2023/04/21 07:27:03;;;;;;;15.07;8.63;;;;;;;13.17;82.67;94263.31;5093241;28;20295;-78
2023/04/21 07:29:30;;;;;;;11.90;9.40;;;;;;;13.29;82.83;94265.81;5111110;28;20221;-77
2023/04/21 07:32:00;;;;;;;12.90;8.67;;;;;;;13.27;83.20;94270.50;5108818;28;20650;-77
2023/04/21 07:34:27;;;;;;;11.20;8.47;;;;;;;13.31;82.44;94261.91;5105096;28;20203;-77
2023/04/21 07:36:57;;;;;;;14.13;8.30;;;;;;;13.35;82.80;94259.63;5092795;28;20199;-77
2023/04/21 07:39:24;;;;;;;12.63;7.30;;;;;;;13.31;82.09;94261.13;5096837;28;20188;-78
2023/04/21 07:41:52;;;;;;;11.67;7.40;;;;;;;13.40;82.31;94254.44;5099486;28;20584;-78
2023/04/21 07:44:20;;;;;;;12.40;8.20;;;;;;;13.60;81.50;94258.06;5095204;28;20295;-78
2023/04/21 07:46:47;;;;;;;11.30;7.43;;;;;;;13.77;80.85;94267.59;5105841;28;20561;-77
2023/04/21 07:49:14;;;;;;;12.17;7.50;;;;;;;13.85;81.20;94261.97;5099404;28;20215;-77
2023/04/21 07:51:41;;;;;;;13.50;7.83;;;;;;;13.86;80.87;94260.91;5095721;28;20659;-78
2023/04/21 07:54:07;;;;;;;13.57;7.63;;;;;;;13.80;80.62;94269.72;5097068;28;20200;-78
2023/04/21 07:56:34;;;;;;;10.17;7.20;;;;;;;13.80;80.80;94267.13;5105899;28;20200;-78
2023/04/21 07:59:02;;;;;;;9.33;6.80;;;;;;;13.95;80.76;94270.66;5100934;28;20291;-77
2023/04/21 08:01:29;;;;;;;9.00;7.23;;;;;;;13.97;80.01;94262.56;5103400;28;20204;-78
2023/04/21 08:03:56;;;;;;;16.93;8.13;;;;;;;14.08;78.96;94272.88;5095487;28;20243;-78
2023/04/21 08:06:23;;;;;;;14.97;8.50;;;;;;;14.04;78.34;94261.34;5092573;28;20217;-78
2023/04/21 08:08:50;;;;;;;12.77;8.03;;;;;;;13.96;78.39;94263.63;5100807;28;20199;-77
2023/04/21 08:11:17;;;;;;;10.87;7.67;;;;;;;13.95;78.48;94270.66;5097984;28;20286;-78
2023/04/21 08:13:43;;;;;;;10.40;7.67;;;;;;;13.81;79.02;94273.94;5093734;28;20671;-77
2023/04/21 08:16:12;;;;;;;13.53;8.00;;;;;;;13.87;79.66;94265.91;5106686;28;20188;-78
2023/04/21 08:18:38;;;;;;;13.40;8.17;;;;;;;14.03;78.38;94261.59;5113083;28;20195;-78
2023/04/21 08:21:06;;;;;;;11.37;8.77;;;;;;;14.16;78.52;94271.63;5112528;28;20192;-78
2023/04/21 08:23:32;;;;;;;10.13;7.10;;;;;;;14.22;78.54;94262.81;5112755;28;20199;-78
2023/04/21 08:26:00;;;;;;;9.60;6.37;;;;;;;14.23;77.49;94262.53;5112622;28;20236;-77
2023/04/21 08:28:26;;;;;;;8.90;6.93;;;;;;;14.37;77.50;94257.69;5106216;28;20212;-77
2023/04/21 08:30:53;;;;;;;11.77;6.60;;;;;;;14.45;75.85;94264.31;5099143;28;20200;-77
2023/04/21 08:33:21;;;;;;;12.47;6.27;;;;;;;14.47;76.74;94251.75;5112356;28;20192;-77
2023/04/21 08:35:48;;;;;;;11.73;7.17;;;;;;;14.64;75.74;94257.63;5112325;28;20608;-78
2023/04/21 08:38:23;;;;;;;10.80;7.20;;;;;;;14.79;75.60;94257.72;5112635;28;20651;-78
2023/04/21 08:40:49;;;;;;;13.13;7.77;;;;;;;14.74;74.50;94263.72;5112838;28;20180;-79
2023/04/21 08:43:16;;;;;;;12.47;8.50;;;;;;;14.69;75.59;94270.72;5112233;28;20192;-78
2023/04/21 08:45:43;;;;;;;13.60;7.13;;;;;;;14.60;75.22;94269.66;5112436;28;20243;-77
2023/04/21 08:48:20;;;;;;;13.50;7.03;;;;;;;14.63;75.45;94266.53;5113029;28;20195;-77
2023/04/21 08:50:49;;;;;;;12.37;7.13;;;;;;;14.65;76.36;94261.81;5089446;28;20208;-78
2023/04/21 08:53:16;;;;;;;10.53;7.10;;;;;;;14.74;75.63;94252.47;5071860;28;20189;-78
2023/04/21 08:55:43;;;;;;;12.27;7.47;;;;;;;14.90;75.97;94253.31;5093073;28;20192;-78
2023/04/21 08:58:10;;;;;;;10.60;7.10;;;;;;;14.96;75.21;94257.53;5111647;28;20704;-78
2023/04/21 09:00:38;;;;;;;10.87;6.50;;;;;;;15.14;74.51;94247.44;5111996;28;20196;-78
2023/04/21 09:03:07;;;;;;;11.43;6.17;;;;;;;15.32;73.98;94238.34;5111772;28;20200;-78
2023/04/21 09:05:36;;;;;;;13.77;5.97;;;;;;;15.29;72.26;94233.63;5110646;28;20256;-77
2023/04/21 09:08:11;;;;;;;8.50;5.83;;;;;;;15.47;72.22;94240.25;5111958;28;20196;-77
2023/04/21 09:10:45;;;;;;;12.40;6.37;;;;;;;15.33;72.21;94232.03;5112369;28;20192;-79
2023/04/21 09:13:12;;;;;;;9.83;6.17;;;;;;;15.42;72.00;94230.50;5111890;28;20275;-78
2023/04/21 09:15:42;;;;;;;10.60;5.90;;;;;;;15.52;72.01;94237.63;5111978;28;20257;-78
2023/04/21 09:18:14;;;;;;;7.97;5.87;;;;;;;15.63;70.55;94221.69;5111906;28;20253;-78
2023/04/21 09:20:42;;;;;;;7.43;5.47;;;;;;;15.57;70.88;94222.72;5112030;28;20245;-78
2023/04/21 09:23:11;;;;;;;11.97;5.97;;;;;;;15.61;70.58;94223.75;5112210;28;20230;-78
2023/04/21 09:25:39;;;;;;;11.10;5.73;;;;;;;15.72;70.64;94227.19;5102398;28;20682;-78
2023/04/21 09:28:08;;;;;;;11.13;5.87;;;;;;;15.67;70.03;94229.81;5111810;28;20192;-78
2023/04/21 09:30:36;;;;;;;8.43;6.53;;;;;;;15.81;70.64;94220.41;5111678;28;20735;-78
2023/04/21 09:33:03;;;;;;;9.43;5.73;;;;;;;15.80;69.92;94203.88;5111780;28;20279;-78
2023/04/21 09:35:32;;;;;;;9.47;5.90;;;;;;;15.95;69.81;94204.94;5111001;28;20199;-78
2023/04/21 09:38:01;;;;;;;12.97;6.90;;;;;;;16.15;68.89;94212.81;5111151;28;20195;-78
2023/04/21 09:40:33;;;;;;;8.13;5.90;;;;;;;16.31;68.81;94224.84;5107431;28;20200;-78
2023/04/21 09:43:00;;;;;;;8.03;6.00;;;;;;;16.19;68.40;94208.63;5091320;28;20523;-76
2023/04/21 09:45:28;;;;;;;10.73;6.10;;;;;;;16.27;68.76;94222.00;5090668;28;20256;-76
2023/04/21 09:47:57;;;;;;;12.70;6.20;;;;;;;16.29;68.69;94198.91;5091003;28;20193;-78
2023/04/21 09:50:27;;;;;;;8.40;5.43;;;;;;;16.33;67.01;94220.91;5088831;28;20560;-78
2023/04/21 09:52:56;;;;;;;8.73;5.47;;;;;;;16.15;64.58;94191.84;5090504;28;20609;-78
2023/04/21 09:55:27;;;;;;;9.57;5.37;;;;;;;16.15;64.57;94218.06;5105591;28;20268;-78
2023/04/21 09:58:00;;;;;;;10.40;5.30;;;;;;;16.18;64.61;94209.66;5110301;28;20196;-79
2023/04/21 10:00:28;;;;;;;8.97;5.33;;;;;;;16.12;65.04;94200.22;5111496;28;20275;-79
2023/04/21 10:02:57;;;;;;;7.27;5.80;;;;;;;16.28;64.99;94214.88;5111693;28;20192;-79
2023/04/21 10:05:24;;;;;;;9.97;5.63;;;;;;;16.31;64.29;94196.78;5112902;28;20236;-79
2023/04/21 10:07:52;;;;;;;8.13;5.27;;;;;;;16.61;64.02;94203.88;5094329;28;20257;-79
2023/04/21 10:10:25;;;;;;;11.20;5.77;;;;;;;16.88;64.29;94211.41;5100393;28;20246;-78
2023/04/21 10:12:52;;;;;;;11.33;5.73;;;;;;;16.87;65.04;94207.22;5111663;28;20176;-78
2023/04/21 10:15:32;;;;;;;9.97;5.83;;;;;;;16.87;65.34;94205.38;5111456;28;20192;-79
2023/04/21 10:18:16;;;;;;;9.97;6.43;;;;;;;16.84;66.21;94205.91;5115511;28;20282;-78
2023/04/21 10:20:53;;;;;;;8.40;6.13;;;;;;;16.77;66.00;94199.34;5115100;28;20658;-78
2023/04/21 10:23:31;;;;;;;11.83;6.87;;;;;;;16.61;65.68;94193.38;5115550;28;20654;-80
2023/04/21 10:26:09;;;;;;;10.80;6.43;;;;;;;16.54;66.71;94198.09;5115100;28;20227;-79
2023/04/21 10:28:47;;;;;;;9.03;6.03;;;;;;;16.42;66.89;94198.34;5115203;28;20200;-78
2023/04/21 10:31:25;;;;;;;8.60;5.83;;;;;;;16.57;66.79;94191.53;5115202;28;20237;-79
2023/04/21 10:34:18;;;;;;;9.87;6.17;;;;;;;16.76;66.50;94201.22;5114852;28;20620;-78
2023/04/21 10:37:27;;;;;;;9.80;6.03;;;;;;;16.89;65.33;94205.88;5115098;28;20253;-79
2023/04/21 10:39:57;;;;;;;15.47;6.27;;;;;;;16.95;65.15;94202.19;5061138;28;20201;-77
2023/04/21 10:42:34;;;;;;;11.63;6.13;;;;;;;16.87;64.46;94207.22;5114257;28;20246;-78
2023/04/21 10:45:06;;;;;;;12.97;6.53;;;;;;;16.71;65.27;94203.81;5114253;28;20571;-77
2023/04/21 10:47:43;;;;;;;9.77;5.80;;;;;;;16.74;65.23;94194.63;5114717;28;20180;-79
2023/04/21 10:50:19;;;;;;;12.17;6.37;;;;;;;16.91;64.08;94197.75;5114567;28;20211;-79
2023/04/21 10:52:52;;;;;;;14.13;6.20;;;;;;;17.03;62.93;94195.59;5115115;28;20215;-80
2023/04/21 10:55:20;;;;;;;8.27;5.47;;;;;;;17.45;62.81;94195.94;5114865;28;20184;-80
2023/04/21 10:57:47;;;;;;;10.47;5.67;;;;;;;17.86;62.13;94200.97;5114373;28;20189;-79
2023/04/21 11:00:22;;;;;;;7.73;5.40;;;;;;;18.12;60.00;94194.47;5114985;28;20204;-81
2023/04/21 11:03:01;;;;;;;8.20;5.20;;;;;;;18.48;58.53;94202.81;5114035;28;20192;-80
2023/04/21 11:05:37;;;;;;;11.63;5.73;;;;;;;18.54;56.31;94199.09;5113909;28;20216;-81
2023/04/21 11:08:06;;;;;;;7.72;5.13;;;;;;;18.49;56.32;94186.78;5113627;28;20211;-80
2023/04/21 11:10:46;;;;;;;10.07;5.13;;;;;;;18.57;57.80;94193.28;5095450;28;20200;-79
2023/04/21 11:13:13;;;;;;;10.90;5.60;;;;;;;18.78;58.03;94188.59;5093439;28;20260;-78
2023/04/21 11:15:40;;;;;;;10.27;5.63;;;;;;;19.03;57.59;94189.09;5093999;28;20189;-80
2023/04/21 11:18:08;;;;;;;7.40;5.60;;;;;;;19.11;56.36;94182.41;5093708;28;20201;-80
2023/04/21 11:20:40;;;;;;;9.60;5.00;;;;;;;19.26;56.04;94179.59;5093651;28;20242;-80
2023/04/21 11:23:16;;;;;;;9.10;4.70;;;;;;;19.46;54.94;94192.53;5094020;28;20173;-82
2023/04/21 11:25:45;;;;;;;8.85;4.60;;;;;;;19.49;52.45;94191.97;5112627;28;20207;-79
2023/04/21 11:28:20;;;;;;;7.50;4.03;;;;;;;19.51;49.98;94186.44;5109256;28;20213;-79
2023/04/21 11:30:47;;;;;;;8.98;4.28;;;;;;;19.67;54.12;94185.13;5112054;28;20548;-79